Alexandria International Airport
KAEX : now visible

Airfield :











YOU CAN JOIN US ON...

 
LOGIN :

Register | Disclaimer

   EN    FR    IT 

 









Legend :    VFR   Marginal VFR   IFR   Intensive IFR   Very Intensive IFR
Visi :
Ceiling :
>= 8 km
>= 3000ft
5 to 8 km
1000 to 3000 ft
1500m to 5 km
500 to 1000 ft
800 to 1500m
200 to 500 ft
< 800m
< 200 ft
Symbols :   Thunderstorms  Fog  Heavy snow  Heavy precipitations  Wind > 20 kt






- Airport Elevation : 89 ft
- IATA code : AEX


KAEX - Alexandria International

CURRENT METAR :
  • 161831Z 04006KT 3SM -RA BR OVC009 25/23 A2985 RMK AO2 RAB1759 CIG 005V012 P0001 T02500233

EXPIRED METARs :
  • 161812Z 06006KT 2 1/2SM -RA BR OVC007 25/23 A2985 RMK AO2 RAB1759 CIG 006V012 P0000 T02500233
  • 161753Z 05005KT 8SM OVC007 24/23 A2986 RMK AO2 RAB02E45 CIG 005V011 SLP112 P0001 60003 T02440228 10250 20228 50001
  • 161741Z 06005KT 4SM -RA BR OVC008 24/23 A2986 RMK AO2 RAB02 P0001 T02440228
  • 161726Z 04007KT 2SM -RA BR BKN006 BKN012 OVC020 24/23 A2986 RMK AO2 RAB02 P0001 T02440228
  • 161711Z 06007KT 2 1/2SM -RA BR SCT008 BKN012 OVC022 24/22 A2987 RMK AO2 RAB02 P0000 T02440222
  • 161653Z AUTO 06009KT 9SM OVC008 24/22 A2987 RMK AO2 CIG 007V011 SLP116 T02440222
  • 161553Z AUTO 06006KT 10SM OVC008 24/22 A2986 RMK AO2 RAE11 SLP115 P0001 T02390222

TAF KAEX
Valid from the 16 at 18:00 until the 17 at 18:00 UTC


161720Z 1618/1718 07008KT 5SM BR OVC007
TEMPO 1618/1622 2SM -RA BR
FM162300 06003KT 6SM BR BKN010 OVC015
FM170300 05005KT P6SM OVC007
FM170700 08003KT 4SM BR OVC003
FM171400 14006KT 6SM BR OVC015
PROB30 1715/1718 4SM -RA BR OVC007
KZHU FIR / North America



MET'MAP, your aeronautical weather chart ! - Copyright ORBIFLY December 2007 - Disclaimer

ORBIFLY MET'MAP TEAM :

Programming & Development : Alexandra Zaïnal
Concept & original design : Baudouin d'Aumeries
Assistance for programming : Marc-Olivier Méhu
Technical & hardware support : Manuel Goepfert

Contact : metmap@orbifly.com




SOURCES & CREDITS :

   NOAA       Earth
Advisory